To NAV CANADA Home Page Login to a new session Search on AWWS site Feedback and Comments Disclaimer Vers la page française équivalente Tips FAQ What's new on the site To the Forecasts and Observations / NOTAM section To "File a Flight Plan" website Publications and other links Update of the User's profile FIC Telephone Numbers My Weather Data Folder Route Weather Data Regional Weather Data Local Weather Data To the Forecasts and Observations / NOTAM section
Request Generated 10/17/2017 at 01:57:57 UTC . Weather information available at that time is displayed.

METAR/TAF

BURWASH/YT    (show WxCam)

SPECI CYDB 170145Z AUTO 30007KT 9SM OVC030 M03/M06 A2946 RMK SLP023=
METAR CYDB 170100Z AUTO 31009KT 9SM OVC032 M03/M06 A2945 RMK SLP020=
METAR CYDB 170000Z AUTO 32006KT 9SM OVC032 M02/M06 A2945 RMK SLP019=
SPECI CYDB 162301Z AUTO 30007KT 9SM OVC032 M02/M06 A2945 RMK SLP017=
METAR CYDB 162300Z AUTO 32007KT 9SM OVC034 M02/M06 A2945 RMK SLP017=

TAF CYDB 162341Z 1700/1712 30005KT P6SM FEW008 SCT030 BKN050 TEMPO
1700/1712 5SM -SN SCT008 OVC030
RMK NXT FCST BY 170600Z=
Your time UTC time
Weather data provided by Environment Canada and NAV CANADA